createdAt,value
2023-04-23T00:02:17.574Z,19.73
2023-04-23T00:04:51.090Z,19.72
2023-04-23T00:07:19.321Z,19.72
2023-04-23T00:09:46.899Z,19.72
2023-04-23T00:12:14.781Z,19.71
2023-04-23T00:14:42.786Z,19.73
2023-04-23T00:17:12.236Z,19.72
2023-04-23T00:19:39.816Z,19.72
2023-04-23T00:22:07.398Z,19.72
2023-04-23T00:24:36.240Z,19.73
2023-04-23T00:27:03.968Z,19.71
2023-04-23T00:29:31.559Z,19.72
2023-04-23T00:31:59.197Z,19.72
2023-04-23T00:34:28.216Z,19.73
2023-04-23T00:36:55.784Z,19.73
2023-04-23T00:39:23.552Z,19.72
2023-04-23T00:41:51.303Z,19.72
2023-04-23T00:44:18.890Z,19.73
2023-04-23T00:46:46.457Z,19.72
2023-04-23T00:49:14.301Z,19.71
2023-04-23T00:51:43.270Z,19.73
2023-04-23T00:54:10.799Z,19.73
2023-04-23T00:56:38.429Z,19.73
2023-04-23T00:59:06.119Z,19.74
2023-04-23T01:01:34.056Z,19.74
2023-04-23T01:04:03.731Z,19.73
2023-04-23T01:06:31.721Z,19.74
2023-04-23T01:09:01.225Z,19.73
2023-04-23T01:11:28.764Z,19.74
2023-04-23T01:13:56.308Z,19.75
2023-04-23T01:16:23.902Z,19.74
2023-04-23T01:18:53.695Z,19.74
2023-04-23T01:21:21.258Z,19.74
2023-04-23T01:23:50.374Z,19.74
2023-04-23T01:26:18.993Z,19.73
2023-04-23T01:28:46.725Z,19.73
2023-04-23T01:31:15.021Z,19.73
2023-04-23T01:33:43.107Z,19.73
2023-04-23T01:36:10.765Z,19.73
2023-04-23T01:38:39.116Z,19.73
2023-04-23T01:41:08.116Z,19.72
2023-04-23T01:43:35.787Z,19.72
2023-04-23T01:46:03.426Z,19.72
2023-04-23T01:48:31.023Z,19.72
2023-04-23T01:50:59.305Z,19.73
2023-04-23T01:53:27.017Z,19.72
2023-04-23T01:55:54.555Z,19.72
2023-04-23T01:58:23.741Z,19.72
2023-04-23T02:00:52.346Z,19.72
2023-04-23T02:03:20.307Z,19.71
2023-04-23T02:05:48.188Z,19.72
2023-04-23T02:08:15.934Z,19.73
2023-04-23T02:10:43.626Z,19.73
2023-04-23T02:13:11.206Z,19.73
2023-04-23T02:15:40.592Z,19.74
2023-04-23T02:18:08.208Z,19.72
2023-04-23T02:20:38.757Z,19.73
2023-04-23T02:23:06.334Z,19.72
2023-04-23T02:25:33.973Z,19.73
2023-04-23T02:28:05.388Z,19.73
2023-04-23T02:30:32.958Z,19.72
2023-04-23T02:33:02.131Z,19.72
2023-04-23T02:35:29.790Z,19.72
2023-04-23T02:37:57.358Z,19.73
2023-04-23T02:40:25.131Z,19.72
2023-04-23T02:42:52.720Z,19.72
2023-04-23T02:45:20.298Z,19.72
2023-04-23T02:47:53.301Z,19.73
2023-04-23T02:50:22.679Z,19.72
2023-04-23T02:52:50.618Z,19.71
2023-04-23T02:55:18.307Z,19.72
2023-04-23T02:57:46.536Z,19.72
2023-04-23T03:00:15.121Z,19.73
2023-04-23T03:02:44.096Z,19.74
2023-04-23T03:05:12.708Z,19.73
2023-04-23T03:07:41.898Z,19.73
2023-04-23T03:10:09.850Z,19.72
2023-04-23T03:12:37.570Z,19.73
2023-04-23T03:15:05.769Z,19.73
2023-04-23T03:17:35.750Z,19.72
2023-04-23T03:20:03.742Z,19.73
2023-04-23T03:22:31.703Z,19.72
2023-04-23T03:25:00.621Z,19.73
2023-04-23T03:27:28.262Z,19.73
2023-04-23T03:29:56.563Z,19.72
2023-04-23T03:32:24.288Z,19.72
2023-04-23T03:34:52.103Z,19.72
2023-04-23T03:37:20.319Z,19.73
2023-04-23T03:39:47.965Z,19.72
2023-04-23T03:42:17.612Z,19.72
2023-04-23T03:44:45.363Z,19.72
2023-04-23T03:47:12.957Z,19.71
2023-04-23T03:49:40.899Z,19.72
2023-04-23T03:52:09.322Z,19.73
2023-04-23T03:54:40.050Z,19.72
2023-04-23T03:57:20.044Z,19.72
2023-04-23T04:00:16.836Z,19.71
2023-04-23T04:02:44.641Z,19.71
2023-04-23T04:05:13.834Z,19.71
2023-04-23T04:07:42.358Z,19.71
2023-04-23T04:10:10.452Z,19.72
2023-04-23T04:12:41.006Z,19.70
2023-04-23T04:15:11.114Z,19.70
2023-04-23T04:17:38.886Z,19.70
2023-04-23T04:20:08.379Z,19.69
2023-04-23T04:22:35.924Z,19.70
2023-04-23T04:25:05.162Z,19.69
2023-04-23T04:27:33.785Z,19.71
2023-04-23T04:30:02.790Z,19.71
2023-04-23T04:32:30.712Z,19.70
2023-04-23T04:34:58.342Z,19.70
2023-04-23T04:37:26.412Z,19.72
2023-04-23T04:39:54.497Z,19.70
2023-04-23T04:42:22.094Z,19.72
2023-04-23T04:44:49.685Z,19.72
2023-04-23T04:47:18.789Z,19.70
2023-04-23T04:49:46.740Z,19.70
2023-04-23T04:52:14.297Z,19.71
2023-04-23T04:54:42.187Z,19.70
2023-04-23T04:57:10.992Z,19.72
2023-04-23T04:59:38.592Z,19.72
2023-04-23T05:02:06.208Z,19.71
2023-04-23T05:04:35.263Z,19.72
2023-04-23T05:07:02.803Z,19.72
2023-04-23T05:09:30.334Z,19.73
2023-04-23T05:11:58.153Z,19.72
2023-04-23T05:14:26.596Z,19.72
2023-04-23T05:16:54.240Z,19.73
2023-04-23T05:19:21.870Z,19.74
2023-04-23T05:21:50.839Z,19.73
2023-04-23T05:24:18.436Z,19.73
2023-04-23T05:26:46.007Z,19.73
2023-04-23T05:29:17.817Z,19.74
2023-04-23T05:31:45.573Z,19.73
2023-04-23T05:34:13.254Z,19.74
2023-04-23T05:36:41.142Z,19.73
2023-04-23T05:39:10.074Z,19.75
2023-04-23T05:41:37.606Z,19.76
2023-04-23T05:44:05.329Z,19.76
2023-04-23T05:46:32.973Z,19.76
2023-04-23T05:49:00.678Z,19.77
2023-04-23T05:51:28.357Z,19.77
2023-04-23T05:53:55.898Z,19.78
2023-04-23T05:56:25.611Z,19.79
2023-04-23T05:58:53.183Z,19.79
2023-04-23T06:01:20.881Z,19.79
2023-04-23T06:03:48.813Z,19.81
2023-04-23T06:06:16.865Z,19.79
2023-04-23T06:08:44.714Z,19.81
2023-04-23T06:11:12.271Z,19.81
2023-04-23T06:13:43.912Z,19.82
2023-04-23T06:16:11.758Z,19.81
2023-04-23T06:18:39.631Z,19.81
2023-04-23T06:21:07.164Z,19.82
2023-04-23T06:23:34.925Z,19.82
2023-04-23T06:26:04.310Z,19.80
2023-04-23T06:28:31.940Z,19.80
2023-04-23T06:31:23.938Z,19.80
2023-04-23T06:33:51.575Z,19.79
2023-04-23T06:36:19.155Z,19.81
2023-04-23T06:38:46.750Z,19.80
2023-04-23T06:41:14.332Z,19.81
2023-04-23T06:43:42.075Z,19.81
2023-04-23T06:46:15.287Z,19.81
2023-04-23T06:48:44.263Z,19.81
2023-04-23T06:51:11.867Z,19.83
2023-04-23T06:53:40.034Z,19.82
2023-04-23T06:56:07.816Z,19.82
2023-04-23T06:58:35.450Z,19.83
2023-04-23T07:01:12.678Z,19.83
2023-04-23T07:03:42.454Z,19.82
2023-04-23T07:06:12.574Z,19.85
2023-04-23T07:08:40.435Z,19.83
2023-04-23T07:11:08.007Z,19.84
2023-04-23T07:13:35.687Z,19.83
2023-04-23T07:16:05.661Z,19.83
2023-04-23T07:18:33.333Z,19.83
2023-04-23T07:21:01.024Z,19.84
2023-04-23T07:23:30.067Z,19.84
2023-04-23T07:25:57.617Z,19.85
2023-04-23T07:28:25.215Z,19.84
2023-04-23T07:30:52.817Z,19.84
2023-04-23T07:33:20.414Z,19.83
2023-04-23T07:35:48.563Z,19.84
2023-04-23T07:38:16.121Z,19.84
2023-04-23T07:40:45.308Z,19.84
2023-04-23T07:43:13.992Z,19.82
2023-04-23T07:45:41.594Z,19.84
2023-04-23T07:48:09.232Z,19.84
2023-04-23T07:50:36.851Z,19.83
2023-04-23T07:53:04.457Z,19.84
2023-04-23T07:55:32.025Z,19.86
2023-04-23T07:58:01.052Z,19.87
2023-04-23T08:00:28.608Z,19.87
2023-04-23T08:02:56.268Z,19.87
2023-04-23T08:05:24.018Z,19.88
2023-04-23T08:07:51.722Z,19.87
2023-04-23T08:10:19.342Z,19.88
2023-04-23T08:12:46.922Z,19.90
2023-04-23T08:15:15.897Z,19.87
2023-04-23T08:17:45.271Z,19.87
2023-04-23T08:20:15.766Z,19.87
2023-04-23T08:22:43.409Z,19.88
2023-04-23T08:25:11.105Z,19.90
2023-04-23T08:27:38.697Z,19.90
2023-04-23T08:30:07.466Z,19.89
2023-04-23T08:32:36.526Z,19.89
2023-04-23T08:35:10.661Z,19.87
2023-04-23T08:37:41.284Z,19.86
2023-04-23T08:40:10.027Z,19.88
2023-04-23T08:42:38.893Z,19.86
2023-04-23T08:45:07.148Z,19.83
2023-04-23T08:47:36.775Z,19.82
2023-04-23T08:50:05.333Z,19.84
2023-04-23T08:52:34.223Z,19.83
2023-04-23T08:55:02.165Z,19.85
2023-04-23T08:57:29.868Z,19.86
2023-04-23T08:59:57.468Z,19.87
2023-04-23T09:02:25.254Z,19.86
2023-04-23T09:04:56.197Z,19.86
2023-04-23T09:07:24.025Z,19.87
2023-04-23T09:09:51.671Z,19.87
2023-04-23T09:12:19.280Z,19.86
2023-04-23T09:14:46.818Z,19.87
2023-04-23T09:17:14.390Z,19.87
2023-04-23T09:19:42.163Z,19.87
2023-04-23T09:22:11.301Z,19.87
2023-04-23T09:24:38.881Z,19.87
2023-04-23T09:27:07.005Z,19.86
2023-04-23T09:29:34.872Z,19.85
2023-04-23T09:32:06.727Z,19.86
2023-04-23T09:34:35.277Z,19.86
2023-04-23T09:37:03.761Z,19.86
2023-04-23T09:39:33.740Z,19.86
2023-04-23T09:42:03.818Z,19.85
2023-04-23T09:44:32.689Z,19.85
2023-04-23T09:47:07.020Z,19.86
2023-04-23T09:49:34.885Z,19.87
2023-04-23T09:52:04.520Z,19.85
2023-04-23T09:54:33.423Z,19.85
2023-04-23T09:57:02.176Z,19.86
2023-04-23T09:59:46.810Z,19.86
2023-04-23T10:02:17.578Z,19.87
2023-04-23T10:04:45.349Z,19.88
2023-04-23T10:09:46.464Z,19.91
2023-04-23T10:12:31.371Z,19.91
2023-04-23T10:15:01.705Z,19.92
2023-04-23T10:17:29.413Z,19.91
2023-04-23T10:19:56.989Z,19.94
2023-04-23T10:22:24.631Z,19.94
2023-04-23T10:24:56.024Z,19.95
2023-04-23T10:27:33.457Z,19.95
2023-04-23T10:30:06.146Z,19.96
2023-04-23T10:32:34.419Z,19.96
2023-04-23T10:35:02.115Z,19.96
2023-04-23T10:37:29.800Z,19.95
2023-04-23T10:40:00.257Z,19.97
2023-04-23T10:42:28.361Z,19.95
2023-04-23T10:45:02.716Z,19.94
2023-04-23T10:47:32.505Z,19.94
2023-04-23T10:50:00.071Z,19.96
2023-04-23T10:52:27.672Z,19.96
2023-04-23T10:54:59.855Z,19.96
2023-04-23T10:57:27.644Z,19.97
2023-04-23T10:59:56.280Z,19.98
2023-04-23T11:02:26.614Z,19.98
2023-04-23T11:04:56.067Z,19.98
2023-04-23T11:07:28.427Z,19.99
2023-04-23T11:09:57.682Z,19.99
2023-04-23T11:12:35.678Z,20.00
2023-04-23T11:15:11.234Z,19.99
2023-04-23T11:17:57.303Z,19.99
2023-04-23T11:20:24.957Z,19.99
2023-04-23T11:22:53.032Z,20.01
2023-04-23T11:25:21.016Z,20.02
2023-04-23T11:27:50.440Z,20.03
2023-04-23T11:30:18.689Z,20.04
2023-04-23T11:32:48.976Z,20.05
2023-04-23T11:35:16.937Z,20.07
2023-04-23T11:37:45.134Z,20.07
2023-04-23T11:40:13.835Z,20.07
2023-04-23T11:42:42.249Z,20.05
2023-04-23T11:45:17.204Z,20.07
2023-04-23T11:47:44.983Z,20.07
2023-04-23T11:50:12.856Z,20.08
2023-04-23T11:52:40.406Z,20.10
2023-04-23T11:55:08.457Z,20.11
2023-04-23T11:57:37.189Z,20.08
2023-04-23T12:00:12.183Z,20.11
2023-04-23T12:02:41.510Z,20.11
2023-04-23T12:05:09.718Z,20.13
2023-04-23T12:07:37.265Z,20.13
2023-04-23T12:10:05.030Z,20.13
2023-04-23T12:12:33.904Z,20.14
2023-04-23T12:15:04.517Z,20.14
2023-04-23T12:17:32.145Z,20.14
2023-04-23T12:20:01.155Z,20.16
2023-04-23T12:22:29.134Z,20.15
2023-04-23T12:24:56.819Z,20.16
2023-04-23T12:27:24.418Z,20.18
2023-04-23T12:30:00.220Z,20.17
2023-04-23T12:32:27.969Z,20.17
2023-04-23T12:34:55.749Z,20.18
2023-04-23T12:37:27.060Z,20.18
2023-04-23T12:39:56.878Z,20.18
2023-04-23T12:42:24.680Z,20.18
2023-04-23T12:44:52.465Z,20.19
2023-04-23T12:47:20.471Z,20.19
2023-04-23T12:49:49.486Z,20.20
2023-04-23T12:52:17.207Z,20.20
2023-04-23T12:54:46.169Z,20.18
2023-04-23T12:57:14.104Z,20.13
2023-04-23T12:59:42.173Z,20.15
2023-04-23T13:02:09.958Z,20.18
2023-04-23T13:04:37.710Z,20.19
2023-04-23T13:07:05.400Z,20.21
2023-04-23T13:09:33.000Z,20.19
2023-04-23T13:12:02.538Z,20.18
2023-04-23T13:14:31.760Z,20.19
2023-04-23T13:16:59.271Z,20.20
2023-04-23T13:19:26.966Z,20.22
2023-04-23T13:21:54.622Z,20.21
2023-04-23T13:24:22.244Z,20.25
2023-04-23T13:26:49.897Z,20.22
2023-04-23T13:29:18.868Z,20.24
2023-04-23T13:31:46.748Z,20.26
2023-04-23T13:34:14.516Z,20.24
2023-04-23T13:36:42.277Z,20.26
2023-04-23T13:39:10.989Z,20.26
2023-04-23T13:41:38.609Z,20.26
2023-04-23T13:44:06.190Z,20.26
2023-04-23T13:46:35.555Z,20.25
2023-04-23T13:49:03.127Z,20.27
2023-04-23T13:51:34.665Z,20.24
2023-04-23T13:54:03.630Z,20.26
2023-04-23T13:56:31.643Z,20.28
2023-04-23T13:59:19.525Z,20.26
2023-04-23T14:01:50.297Z,20.27
2023-04-23T14:04:18.327Z,20.30
2023-04-23T14:06:46.086Z,20.31
2023-04-23T14:09:13.741Z,20.29
2023-04-23T14:11:41.514Z,20.30
2023-04-23T14:14:09.295Z,20.27
2023-04-23T14:16:36.910Z,20.26
2023-04-23T14:19:05.854Z,20.31
2023-04-23T14:21:33.728Z,20.32
2023-04-23T14:24:02.458Z,20.30
2023-04-23T14:29:09.854Z,20.30
2023-04-23T14:31:38.037Z,20.30
2023-04-23T14:34:07.215Z,20.31
2023-04-23T14:36:34.809Z,20.32
2023-04-23T14:39:05.109Z,20.30
2023-04-23T14:41:32.886Z,20.32
2023-04-23T14:44:00.804Z,20.34
2023-04-23T14:46:28.640Z,20.33
2023-04-23T14:48:56.257Z,20.32
2023-04-23T14:51:25.237Z,20.32
2023-04-23T14:53:56.663Z,20.35
2023-04-23T14:56:24.482Z,20.35
2023-04-23T14:58:52.323Z,20.34
2023-04-23T15:01:19.959Z,20.34
2023-04-23T15:03:47.850Z,20.25
2023-04-23T15:06:15.580Z,20.23
2023-04-23T15:08:44.599Z,20.27
2023-04-23T15:11:14.096Z,20.31
2023-04-23T15:13:45.226Z,20.30
2023-04-23T15:19:05.231Z,20.15
2023-04-23T15:21:33.972Z,20.21
2023-04-23T15:24:02.940Z,20.25
2023-04-23T15:26:32.567Z,20.29
2023-04-23T15:29:00.176Z,20.30
2023-04-23T15:31:27.845Z,20.28
2023-04-23T15:33:58.210Z,20.29
2023-04-23T15:36:28.682Z,20.30
2023-04-23T15:38:56.234Z,20.27
2023-04-23T15:41:25.299Z,20.30
2023-04-23T15:43:53.689Z,20.30
2023-04-23T15:46:21.332Z,20.28
2023-04-23T15:48:49.073Z,20.29
2023-04-23T15:51:16.688Z,20.29
2023-04-23T15:53:44.330Z,20.29
2023-04-23T15:56:11.970Z,20.28
2023-04-23T15:58:41.007Z,20.30
2023-04-23T16:01:09.804Z,20.29
2023-04-23T16:03:37.912Z,20.30
2023-04-23T16:06:05.910Z,20.29
2023-04-23T16:08:33.680Z,20.30
2023-04-23T16:11:01.369Z,20.29
2023-04-23T16:13:29.196Z,20.30
2023-04-23T16:15:58.439Z,20.29
2023-04-23T16:18:26.070Z,20.31
2023-04-23T16:20:53.731Z,20.30
2023-04-23T16:23:21.496Z,20.30
2023-04-23T16:25:49.274Z,20.30
2023-04-23T16:28:16.818Z,20.30
2023-04-23T16:30:44.541Z,20.30
2023-04-23T16:33:13.601Z,20.30
2023-04-23T16:35:41.150Z,20.27
2023-04-23T16:38:10.912Z,20.27
2023-04-23T16:40:39.751Z,20.29
2023-04-23T16:43:07.377Z,20.30
2023-04-23T16:45:35.475Z,20.27
2023-04-23T16:48:03.147Z,20.27
2023-04-23T16:50:32.153Z,20.26
2023-04-23T16:53:00.098Z,20.26
2023-04-23T16:55:27.747Z,20.25
2023-04-23T16:57:55.417Z,20.25
2023-04-23T17:00:23.071Z,20.24
2023-04-23T17:02:50.777Z,20.25
2023-04-23T17:05:21.084Z,20.24
2023-04-23T17:07:50.093Z,20.23
2023-04-23T17:10:18.830Z,20.23
2023-04-23T17:12:46.671Z,20.23
2023-04-23T17:15:14.336Z,20.23
2023-04-23T17:17:42.126Z,20.21
2023-04-23T17:20:10.227Z,20.22
2023-04-23T17:22:37.826Z,20.22
2023-04-23T17:25:07.471Z,20.21
2023-04-23T17:27:35.045Z,20.20
2023-04-23T17:30:05.803Z,20.20
2023-04-23T17:32:33.521Z,20.19
2023-04-23T17:35:09.529Z,20.21
2023-04-23T17:37:38.054Z,20.21
2023-04-23T17:40:08.158Z,20.20
2023-04-23T17:42:35.856Z,20.20
2023-04-23T17:45:04.488Z,20.19
2023-04-23T17:47:32.154Z,20.17
2023-04-23T17:49:59.850Z,20.14
2023-04-23T17:52:27.398Z,20.14
2023-04-23T17:54:56.713Z,20.15
2023-04-23T17:57:25.784Z,20.17
2023-04-23T17:59:53.618Z,20.15
2023-04-23T18:02:21.373Z,20.15
2023-04-23T18:04:49.080Z,20.13
2023-04-23T18:07:16.780Z,20.13
2023-04-23T18:09:44.369Z,20.15
2023-04-23T18:12:12.016Z,20.12
2023-04-23T18:14:41.034Z,20.13
2023-04-23T18:17:08.746Z,20.11
2023-04-23T18:19:37.169Z,20.11
2023-04-23T18:22:04.758Z,20.09
2023-04-23T18:24:32.334Z,20.04
2023-04-23T18:26:59.951Z,20.00
2023-04-23T18:29:29.466Z,19.99
2023-04-23T18:31:58.614Z,19.98
2023-04-23T18:34:26.489Z,19.98
2023-04-23T18:36:55.435Z,20.00
2023-04-23T18:39:23.126Z,19.99
2023-04-23T18:41:51.033Z,19.99
2023-04-23T18:44:18.998Z,19.99
2023-04-23T18:46:46.558Z,20.01
2023-04-23T18:49:32.354Z,20.03
2023-04-23T18:51:59.882Z,20.04
2023-04-23T18:54:27.448Z,20.02
2023-04-23T18:56:55.503Z,20.03
2023-04-23T18:59:23.059Z,20.01
2023-04-23T19:01:51.136Z,20.01
2023-04-23T19:04:18.880Z,20.01
2023-04-23T19:06:47.960Z,19.98
2023-04-23T19:09:15.588Z,20.00
2023-04-23T19:11:43.187Z,20.00
2023-04-23T19:14:10.751Z,19.99
2023-04-23T19:16:38.340Z,19.99
2023-04-23T19:19:05.873Z,19.98
2023-04-23T19:21:33.650Z,19.99
2023-04-23T19:24:02.772Z,19.98
2023-04-23T19:26:31.582Z,19.98
2023-04-23T19:28:59.212Z,19.99
2023-04-23T19:31:27.059Z,19.98
2023-04-23T19:33:54.630Z,19.99
2023-04-23T19:36:22.133Z,19.98
2023-04-23T19:38:49.737Z,19.98
2023-04-23T19:41:19.164Z,19.98
2023-04-23T19:43:46.760Z,19.98
2023-04-23T19:46:14.379Z,19.98
2023-04-23T19:48:41.979Z,19.99
2023-04-23T19:51:09.618Z,19.98
2023-04-23T19:53:37.216Z,19.98
2023-04-23T19:56:04.821Z,19.98
2023-04-23T19:58:33.850Z,19.98
2023-04-23T20:01:01.978Z,19.98
2023-04-23T20:03:29.814Z,19.99
2023-04-23T20:05:58.396Z,19.97
2023-04-23T20:08:29.662Z,19.98
2023-04-23T20:10:59.986Z,19.98
2023-04-23T20:13:27.684Z,19.99
2023-04-23T20:15:56.617Z,19.99
2023-04-23T20:18:25.544Z,19.98
2023-04-23T20:20:53.156Z,19.98
2023-04-23T20:23:20.730Z,19.98
2023-04-23T20:25:48.621Z,19.98
2023-04-23T20:28:16.330Z,19.97
2023-04-23T20:30:43.978Z,19.99
2023-04-23T20:33:12.977Z,19.99
2023-04-23T20:35:41.884Z,19.98
2023-04-23T20:38:09.687Z,19.98
2023-04-23T20:40:37.310Z,19.96
2023-04-23T20:43:05.539Z,19.99
2023-04-23T20:45:34.582Z,19.98
2023-04-23T20:48:03.871Z,19.99
2023-04-23T20:50:32.975Z,19.98
2023-04-23T20:53:00.675Z,19.98
2023-04-23T20:55:28.435Z,19.98
2023-04-23T20:57:56.080Z,19.98
2023-04-23T21:00:24.186Z,19.98
2023-04-23T21:02:51.887Z,19.98
2023-04-23T21:05:20.708Z,19.98
2023-04-23T21:07:50.633Z,19.98
2023-04-23T21:10:18.414Z,19.98
2023-04-23T21:12:46.023Z,19.97
2023-04-23T21:15:13.643Z,19.98
2023-04-23T21:17:41.327Z,19.98
2023-04-23T21:20:09.584Z,19.98
2023-04-23T21:22:37.218Z,19.98
2023-04-23T21:25:06.525Z,19.98
2023-04-23T21:27:34.054Z,20.02
2023-04-23T21:30:01.643Z,20.04
2023-04-23T21:32:29.214Z,20.05
2023-04-23T21:34:56.895Z,20.04
2023-04-23T21:37:24.552Z,20.04
2023-04-23T21:39:52.135Z,20.01
2023-04-23T21:42:21.088Z,20.03
2023-04-23T21:44:48.706Z,20.01
2023-04-23T21:47:16.299Z,19.99
2023-04-23T21:49:44.213Z,20.01
2023-04-23T21:52:11.998Z,20.01
2023-04-23T21:54:39.766Z,20.00
2023-04-23T21:57:07.322Z,20.01
2023-04-23T21:59:36.304Z,20.00
2023-04-23T22:02:03.932Z,20.00
2023-04-23T22:04:31.601Z,20.01
2023-04-23T22:07:05.660Z,20.00
2023-04-23T22:09:33.259Z,20.00
2023-04-23T22:12:02.915Z,20.01
2023-04-23T22:14:30.758Z,20.00
2023-04-23T22:16:59.906Z,20.01
2023-04-23T22:19:27.578Z,20.01
2023-04-23T22:21:55.254Z,20.00
2023-04-23T22:24:23.290Z,19.99
2023-04-23T22:26:50.987Z,19.99
2023-04-23T22:29:18.617Z,20.00
2023-04-23T22:31:46.518Z,19.99
2023-04-23T22:34:15.509Z,20.00
2023-04-23T22:36:43.420Z,19.99
2023-04-23T22:39:12.507Z,20.00
2023-04-23T22:41:40.410Z,19.99
2023-04-23T22:44:09.274Z,20.00
2023-04-23T22:46:37.335Z,19.99
2023-04-23T22:49:08.046Z,20.00
2023-04-23T22:51:38.675Z,20.00
2023-04-23T22:54:06.288Z,20.00
2023-04-23T22:56:34.260Z,20.00
2023-04-23T22:59:01.969Z,19.98
2023-04-23T23:01:29.604Z,19.99
2023-04-23T23:03:57.373Z,19.99
2023-04-23T23:06:25.128Z,20.00
2023-04-23T23:08:54.194Z,19.99
2023-04-23T23:11:22.196Z,19.99
2023-04-23T23:13:50.200Z,20.03
2023-04-23T23:16:18.666Z,20.02
2023-04-23T23:18:46.394Z,20.02
2023-04-23T23:21:14.080Z,20.02
2023-04-23T23:23:41.696Z,20.01
2023-04-23T23:26:10.628Z,20.01
2023-04-23T23:28:38.202Z,20.00
2023-04-23T23:31:05.862Z,20.00
2023-04-23T23:33:35.561Z,20.00
2023-04-23T23:36:03.149Z,20.00
2023-04-23T23:38:30.747Z,20.00
2023-04-23T23:40:58.330Z,20.01
2023-04-23T23:43:27.422Z,20.02
2023-04-23T23:45:55.124Z,20.01
2023-04-23T23:48:22.748Z,20.03
2023-04-23T23:50:50.286Z,20.03
2023-04-23T23:53:17.856Z,20.01
2023-04-23T23:55:45.574Z,20.01
2023-04-23T23:58:13.162Z,19.99
